Time;durP1;ratioP1;P1;durP2;ratioP2;P2;SDS_P1;SDS_P2;PMS_P1;PMS_P2;Temp;Humidity;BMP_temperature;BMP_pressure;BME280_temperature;BME280_humidity;BME280_pressure;Samples;Min_cycle;Max_cycle;Signal;HPM_P1;HPM_P2
2024/01/07 00:03:01;;;;;;;6.23;5.63;;;8.10;44.60;;;;;;10340298;28;20226;-73
2024/01/07 00:08:04;;;;;;;6.13;5.53;;;8.10;44.60;;;;;;10341042;28;20229;-73
2024/01/07 00:13:09;;;;;;;6.27;5.67;;;8.10;44.70;;;;;;10346459;28;20273;-73
2024/01/07 00:18:13;;;;;;;6.37;5.77;;;8.10;44.80;;;;;;10342423;28;20780;-73
2024/01/07 00:23:16;;;;;;;6.13;5.53;;;8.10;44.60;;;;;;10346028;28;20601;-73
2024/01/07 00:28:21;;;;;;;5.80;5.30;;;8.10;44.60;;;;;;10348882;28;20230;-73
2024/01/07 00:33:24;;;;;;;6.57;5.97;;;8.10;44.90;;;;;;10349889;28;20632;-73
2024/01/07 00:38:27;;;;;;;6.20;5.67;;;8.10;44.80;;;;;;10345373;28;21130;-73
2024/01/07 00:43:32;;;;;;;6.03;5.50;;;8.10;44.60;;;;;;10348572;28;20229;-73
2024/01/07 00:48:35;;;;;;;5.80;5.30;;;8.20;45.10;;;;;;10345608;28;20739;-73
2024/01/07 00:53:39;;;;;;;6.30;5.73;;;8.20;44.80;;;;;;10344854;28;20242;-73
2024/01/07 00:58:43;;;;;;;5.80;5.30;;;8.20;44.80;;;;;;10347288;28;20261;-73
2024/01/07 01:03:46;;;;;;;7.23;6.63;;;8.20;44.90;;;;;;10350162;28;20238;-73
2024/01/07 01:08:50;;;;;;;6.57;5.97;;;8.10;44.80;;;;;;10348816;28;20241;-73
2024/01/07 01:13:54;;;;;;;6.50;5.90;;;8.10;44.60;;;;;;10346005;28;20254;-73
2024/01/07 01:18:57;;;;;;;7.33;6.53;;;8.10;45.00;;;;;;10345189;28;20625;-73
2024/01/07 01:24:01;;;;;;;6.40;5.60;;;8.00;44.70;;;;;;10341558;28;20242;-73
2024/01/07 01:29:05;;;;;;;7.23;6.30;;;8.00;44.70;;;;;;10345876;28;20243;-73
2024/01/07 01:34:09;;;;;;;6.70;6.00;;;8.00;45.10;;;;;;10343532;28;20243;-73
2024/01/07 01:39:12;;;;;;;6.40;5.80;;;7.90;44.80;;;;;;10341912;28;20230;-73
2024/01/07 01:44:17;;;;;;;7.67;6.30;;;7.90;44.80;;;;;;10347708;28;20244;-73
2024/01/07 01:49:20;;;;;;;7.03;6.40;;;7.80;45.00;;;;;;10344504;28;20235;-74
2024/01/07 01:54:24;;;;;;;6.60;5.73;;;7.90;45.10;;;;;;10346066;28;20248;-73
2024/01/07 01:59:30;;;;;;;7.00;6.33;;;7.80;45.00;;;;;;10344689;28;20307;-73
2024/01/07 02:04:34;;;;;;;7.30;6.40;;;7.80;45.40;;;;;;10346575;28;20230;-73
2024/01/07 02:09:37;;;;;;;6.80;6.13;;;7.70;45.10;;;;;;10343488;28;20848;-73
2024/01/07 02:14:42;;;;;;;6.37;5.77;;;7.70;45.00;;;;;;10349086;28;20235;-74
2024/01/07 02:19:45;;;;;;;6.50;5.90;;;7.60;45.40;;;;;;10345719;28;20226;-73
2024/01/07 02:24:50;;;;;;;7.13;6.40;;;7.60;45.20;;;;;;10331371;28;20690;-73
2024/01/07 02:29:53;;;;;;;7.07;5.97;;;7.60;45.50;;;;;;10346559;28;20235;-73
2024/01/07 02:34:56;;;;;;;6.70;6.10;;;7.50;45.20;;;;;;10319555;28;20234;-74
2024/01/07 02:40:00;;;;;;;6.03;5.43;;;7.50;45.40;;;;;;10347921;28;20231;-73
2024/01/07 02:45:05;;;;;;;10.07;6.40;;;7.40;45.50;;;;;;10349646;28;20230;-74
2024/01/07 02:50:08;;;;;;;6.70;5.97;;;7.40;45.50;;;;;;10319690;28;20235;-73
2024/01/07 02:55:13;;;;;;;6.57;5.97;;;7.40;45.70;;;;;;10319556;28;20230;-73
2024/01/07 03:00:17;;;;;;;7.97;6.00;;;7.30;45.80;;;;;;10314977;28;20244;-73
2024/01/07 03:05:20;;;;;;;5.90;5.40;;;7.30;45.80;;;;;;10311211;28;20258;-73
2024/01/07 03:10:25;;;;;;;7.07;6.23;;;7.30;45.60;;;;;;10345048;28;20254;-73
2024/01/07 03:15:28;;;;;;;6.50;5.90;;;7.20;45.90;;;;;;10340890;28;20618;-73
2024/01/07 03:20:31;;;;;;;7.90;6.47;;;7.20;45.80;;;;;;10338921;28;20238;-74
2024/01/07 03:25:36;;;;;;;6.73;6.00;;;7.20;46.40;;;;;;10344637;28;20667;-73
2024/01/07 03:30:39;;;;;;;6.90;6.30;;;7.20;46.00;;;;;;10341533;28;20237;-74
2024/01/07 03:35:42;;;;;;;6.97;6.23;;;7.20;45.70;;;;;;10337419;28;20222;-73
2024/01/07 03:40:47;;;;;;;7.13;6.43;;;7.10;45.80;;;;;;10342405;28;20309;-74
2024/01/07 03:45:50;;;;;;;7.27;6.57;;;7.20;46.10;;;;;;10345979;28;20329;-73
2024/01/07 03:50:53;;;;;;;7.60;6.80;;;7.20;45.80;;;;;;10343109;28;20223;-73
2024/01/07 03:55:58;;;;;;;7.43;6.73;;;7.10;45.80;;;;;;10337983;28;20230;-73
2024/01/07 04:01:01;;;;;;;7.50;6.70;;;7.20;46.10;;;;;;10348964;28;20238;-73
2024/01/07 04:06:08;;;;;;;7.77;7.10;;;7.20;45.90;;;;;;10348191;28;20284;-73
2024/01/07 04:11:13;;;;;;;7.43;6.80;;;7.20;46.20;;;;;;10349087;28;21113;-73
2024/01/07 04:16:19;;;;;;;7.73;7.00;;;7.20;46.00;;;;;;10347951;28;20646;-74
2024/01/07 04:21:22;;;;;;;7.97;7.17;;;7.30;46.30;;;;;;10349891;28;20237;-73
2024/01/07 04:26:27;;;;;;;7.87;7.17;;;7.30;45.80;;;;;;10342276;28;20243;-74
2024/01/07 04:31:30;;;;;;;7.67;6.97;;;7.30;45.80;;;;;;10346613;28;21000;-73
2024/01/07 04:36:33;;;;;;;7.83;7.13;;;7.30;45.50;;;;;;10351678;28;20222;-73
2024/01/07 04:41:38;;;;;;;7.70;7.00;;;7.30;45.50;;;;;;10346725;28;20230;-74
2024/01/07 04:46:41;;;;;;;8.53;7.70;;;7.30;45.80;;;;;;10346458;28;20276;-74
2024/01/07 04:51:44;;;;;;;8.37;7.57;;;7.30;45.50;;;;;;10342209;28;20708;-73
2024/01/07 04:56:49;;;;;;;8.13;7.37;;;7.30;45.60;;;;;;10342488;28;20238;-73
2024/01/07 05:01:52;;;;;;;8.00;7.27;;;7.30;45.70;;;;;;10346269;28;20228;-73
2024/01/07 05:06:56;;;;;;;8.40;7.60;;;7.20;45.40;;;;;;10346138;28;20226;-73
2024/01/07 05:12:00;;;;;;;8.23;7.43;;;7.20;45.30;;;;;;10348212;28;20226;-74
2024/01/07 05:17:04;;;;;;;8.90;8.00;;;7.20;45.50;;;;;;10347773;28;20225;-74
2024/01/07 05:22:07;;;;;;;8.13;7.40;;;7.30;45.50;;;;;;10344551;28;20351;-74
2024/01/07 05:27:12;;;;;;;8.20;7.50;;;7.20;45.30;;;;;;10344401;28;20286;-73
2024/01/07 05:32:15;;;;;;;8.60;7.80;;;7.20;45.60;;;;;;10342826;28;20241;-73
2024/01/07 05:37:18;;;;;;;7.73;7.07;;;7.20;45.50;;;;;;10345152;28;20230;-73
2024/01/07 05:42:23;;;;;;;8.47;7.67;;;7.20;45.50;;;;;;10345256;28;20234;-74
2024/01/07 05:47:26;;;;;;;8.23;7.43;;;7.20;45.70;;;;;;10343783;28;20227;-73
2024/01/07 05:52:29;;;;;;;7.70;7.00;;;7.20;45.60;;;;;;10345837;28;20237;-73
2024/01/07 05:57:34;;;;;;;7.60;6.90;;;7.20;45.40;;;;;;10346491;28;20227;-73
2024/01/07 06:02:37;;;;;;;6.67;6.07;;;7.20;45.30;;;;;;10346633;28;20230;-74
2024/01/07 06:07:40;;;;;;;6.73;5.90;;;7.20;45.10;;;;;;10345990;28;20242;-73
2024/01/07 06:12:45;;;;;;;6.83;6.13;;;7.10;45.00;;;;;;10346233;28;20233;-74
2024/01/07 06:17:48;;;;;;;5.97;5.43;;;7.10;45.10;;;;;;10344227;28;20302;-74
2024/01/07 06:22:52;;;;;;;6.63;5.90;;;7.00;44.90;;;;;;10344394;28;20231;-73
2024/01/07 06:27:56;;;;;;;6.73;6.13;;;6.90;44.90;;;;;;10341522;28;20305;-73
2024/01/07 06:32:59;;;;;;;6.10;5.50;;;6.90;45.20;;;;;;10345086;28;20239;-73
2024/01/07 06:38:04;;;;;;;6.73;6.03;;;6.80;45.00;;;;;;10343538;28;20310;-73
2024/01/07 06:43:08;;;;;;;6.93;6.30;;;6.80;45.10;;;;;;10343770;28;20227;-73
2024/01/07 06:48:12;;;;;;;6.57;5.90;;;6.80;45.10;;;;;;10342499;28;20302;-73
2024/01/07 06:53:16;;;;;;;7.20;6.00;;;6.70;44.90;;;;;;10341410;28;20639;-73
2024/01/07 06:58:20;;;;;;;6.70;6.03;;;6.70;44.90;;;;;;10339502;28;20670;-74
2024/01/07 07:03:24;;;;;;;7.13;6.43;;;6.70;45.10;;;;;;10341020;28;20235;-73
2024/01/07 07:08:27;;;;;;;6.97;6.27;;;6.70;44.90;;;;;;10345003;28;20237;-73
2024/01/07 07:13:32;;;;;;;7.10;6.50;;;6.70;45.00;;;;;;10344275;28;20311;-74
2024/01/07 07:18:35;;;;;;;7.63;6.80;;;6.70;45.10;;;;;;10345343;28;20601;-73
2024/01/07 07:23:38;;;;;;;7.63;6.93;;;6.70;45.10;;;;;;10340568;28;20230;-73
2024/01/07 07:28:43;;;;;;;7.93;7.13;;;6.70;44.90;;;;;;10340159;28;20321;-73
2024/01/07 07:33:46;;;;;;;7.40;6.70;;;6.70;45.10;;;;;;10345713;28;20226;-73
2024/01/07 07:38:49;;;;;;;8.07;7.37;;;6.70;45.00;;;;;;10350615;28;20300;-73
2024/01/07 07:43:54;;;;;;;8.30;7.50;;;6.70;45.00;;;;;;10352642;28;20296;-74
2024/01/07 07:48:57;;;;;;;8.13;7.33;;;6.70;45.10;;;;;;10347533;28;20253;-73
2024/01/07 07:54:01;;;;;;;8.13;7.40;;;6.70;45.10;;;;;;10351029;28;20222;-73
2024/01/07 07:59:06;;;;;;;8.20;7.40;;;6.80;45.10;;;;;;10352066;28;20655;-73
2024/01/07 08:04:10;;;;;;;8.27;7.43;;;6.80;45.30;;;;;;10343083;28;20305;-73
2024/01/07 08:09:13;;;;;;;8.27;7.47;;;6.80;45.10;;;;;;10349842;28;20222;-74
2024/01/07 08:14:18;;;;;;;9.23;8.33;;;6.80;45.20;;;;;;10343296;28;20719;-73
2024/01/07 08:19:21;;;;;;;9.20;8.30;;;6.80;45.30;;;;;;10346354;28;20318;-74
2024/01/07 08:24:25;;;;;;;9.70;8.33;;;6.80;45.10;;;;;;10348178;28;20290;-74
2024/01/07 08:29:29;;;;;;;9.67;8.67;;;6.80;45.10;;;;;;10348929;28;20242;-73
2024/01/07 08:34:32;;;;;;;9.67;8.73;;;6.80;45.20;;;;;;10346268;28;20230;-74
2024/01/07 08:39:36;;;;;;;11.00;9.77;;;6.80;45.10;;;;;;10352511;28;20262;-73
2024/01/07 08:44:40;;;;;;;11.23;10.10;;;6.80;45.20;;;;;;10352297;28;20237;-73
2024/01/07 08:49:43;;;;;;;10.37;9.37;;;6.70;45.30;;;;;;10348426;28;20326;-73
2024/01/07 08:54:47;;;;;;;10.57;9.47;;;6.60;45.20;;;;;;10349022;28;20234;-73
2024/01/07 08:59:52;;;;;;;10.83;9.73;;;6.60;45.40;;;;;;10352939;28;20238;-73
2024/01/07 09:04:57;;;;;;;10.50;9.30;;;6.50;45.50;;;;;;10345731;28;20222;-73
2024/01/07 09:10:01;;;;;;;9.03;8.10;;;6.50;45.40;;;;;;10346773;28;20222;-73
2024/01/07 09:15:07;;;;;;;10.90;9.17;;;6.40;45.50;;;;;;10343689;28;20219;-73
2024/01/07 09:20:11;;;;;;;8.90;8.10;;;6.30;45.60;;;;;;10341551;28;20321;-73
2024/01/07 09:25:16;;;;;;;9.30;8.40;;;6.30;45.70;;;;;;10347131;28;20306;-73
2024/01/07 09:30:20;;;;;;;8.70;7.90;;;6.20;45.60;;;;;;10344706;28;20764;-73
2024/01/07 09:35:24;;;;;;;8.57;7.70;;;6.20;45.90;;;;;;10345738;28;21030;-73
2024/01/07 09:40:27;;;;;;;8.07;7.30;;;6.20;45.70;;;;;;10347029;28;20310;-73
2024/01/07 09:45:32;;;;;;;8.00;7.20;;;6.20;45.70;;;;;;10348272;28;20276;-73
2024/01/07 09:50:35;;;;;;;8.20;7.40;;;6.10;45.80;;;;;;10341301;28;20257;-74
2024/01/07 09:55:48;;;;;;;7.57;6.87;;;6.10;45.60;;;;;;10341271;28;20234;-73
2024/01/07 10:00:53;;;;;;;7.30;6.60;;;6.00;45.90;;;;;;10343662;28;20229;-73
2024/01/07 10:05:56;;;;;;;7.27;6.57;;;6.00;45.70;;;;;;10342310;28;20253;-74
2024/01/07 10:11:01;;;;;;;6.67;6.07;;;5.90;45.50;;;;;;10342112;28;20239;-73
2024/01/07 10:16:08;;;;;;;7.70;6.90;;;5.90;45.50;;;;;;10344129;28;20280;-73
2024/01/07 10:21:11;;;;;;;7.43;6.73;;;5.80;45.90;;;;;;10340595;28;20238;-73
2024/01/07 10:26:14;;;;;;;7.30;6.60;;;5.80;45.80;;;;;;10339709;28;20706;-73
2024/01/07 10:31:32;;;;;;;7.50;6.80;;;5.80;45.90;;;;;;10335455;28;20744;-73
2024/01/07 10:36:35;;;;;;;7.07;6.47;;;5.70;46.00;;;;;;10343885;28;20718;-73
2024/01/07 10:41:40;;;;;;;7.90;7.10;;;5.70;46.00;;;;;;10343032;28;20284;-73
2024/01/07 10:46:46;;;;;;;7.50;6.77;;;5.70;46.10;;;;;;10342262;28;20317;-73
2024/01/07 10:51:57;;;;;;;7.40;6.70;;;5.70;46.00;;;;;;10342386;28;20230;-73
2024/01/07 10:57:05;;;;;;;7.57;6.73;;;5.70;46.30;;;;;;10343087;28;20234;-73
2024/01/07 11:02:13;;;;;;;7.27;6.57;;;5.70;46.00;;;;;;10340887;28;20227;-73
2024/01/07 11:07:24;;;;;;;7.47;6.77;;;5.60;46.10;;;;;;10340645;28;20254;-73
2024/01/07 11:12:29;;;;;;;7.77;6.27;;;5.60;46.40;;;;;;10336061;28;20234;-73
2024/01/07 11:17:45;;;;;;;7.07;6.47;;;5.60;45.90;;;;;;10344614;28;20242;-73
2024/01/07 11:22:49;;;;;;;7.67;6.93;;;5.60;46.50;;;;;;10346547;28;20234;-73
2024/01/07 11:27:52;;;;;;;7.30;6.60;;;5.60;45.90;;;;;;10339492;28;20246;-73
2024/01/07 11:33:01;;;;;;;9.50;8.63;;;5.60;45.90;;;;;;10342366;28;20238;-73
2024/01/07 11:38:05;;;;;;;7.70;7.00;;;5.70;46.10;;;;;;10339826;28;20576;-73
2024/01/07 11:43:10;;;;;;;7.63;6.93;;;5.70;45.70;;;;;;10340164;28;20317;-73
2024/01/07 11:48:15;;;;;;;7.87;7.07;;;5.70;45.70;;;;;;10341373;28;20232;-73
2024/01/07 11:53:19;;;;;;;8.13;7.33;;;5.70;45.70;;;;;;10346183;28;20254;-73
2024/01/07 11:58:22;;;;;;;7.93;7.03;;;5.60;45.60;;;;;;10343843;28;20234;-73
2024/01/07 12:03:26;;;;;;;7.70;7.00;;;5.60;45.40;;;;;;10342989;28;20231;-73
2024/01/07 12:08:30;;;;;;;7.83;6.93;;;5.60;45.60;;;;;;10343928;28;20231;-73
2024/01/07 12:13:34;;;;;;;8.03;7.23;;;5.60;45.50;;;;;;10342994;28;20231;-73
2024/01/07 12:18:39;;;;;;;7.60;6.90;;;5.50;45.50;;;;;;10350465;28;20226;-73
2024/01/07 12:23:42;;;;;;;8.30;7.53;;;5.50;45.50;;;;;;10347152;28;20231;-73
2024/01/07 12:28:53;;;;;;;9.80;8.80;;;5.50;45.50;;;;;;10349580;28;20262;-73
2024/01/07 12:33:59;;;;;;;8.33;7.47;;;5.50;45.60;;;;;;10352631;28;20258;-73
2024/01/07 12:39:03;;;;;;;8.27;7.47;;;5.50;45.60;;;;;;10347798;28;20231;-73
2024/01/07 12:44:08;;;;;;;8.17;7.37;;;5.50;45.40;;;;;;10353678;28;20597;-72
2024/01/07 12:49:12;;;;;;;9.03;7.80;;;5.50;45.30;;;;;;10346850;28;20242;-72
2024/01/07 12:54:16;;;;;;;8.03;7.30;;;5.40;45.40;;;;;;10350811;28;20693;-73
2024/01/07 12:59:19;;;;;;;8.40;7.57;;;5.40;45.30;;;;;;10348766;28;20650;-73
2024/01/07 13:04:24;;;;;;;8.60;7.80;;;5.40;45.20;;;;;;10343558;28;20253;-73
2024/01/07 13:09:27;;;;;;;8.23;7.40;;;5.30;45.30;;;;;;10348726;28;20304;-73
2024/01/07 13:14:30;;;;;;;8.93;8.03;;;5.30;45.30;;;;;;10344128;28;20246;-73
2024/01/07 13:19:35;;;;;;;8.47;7.27;;;5.30;45.20;;;;;;10315323;28;20276;-73
2024/01/07 13:24:38;;;;;;;8.27;7.47;;;5.20;45.30;;;;;;10322524;28;20223;-73
2024/01/07 13:29:41;;;;;;;8.33;7.47;;;5.10;45.10;;;;;;10333111;28;21106;-75
2024/01/07 13:34:46;;;;;;;8.43;7.57;;;5.10;45.20;;;;;;10343333;28;20245;-73
2024/01/07 13:39:50;;;;;;;9.83;8.53;;;5.00;45.20;;;;;;10343668;28;20234;-73
2024/01/07 13:44:53;;;;;;;9.13;8.23;;;5.00;45.30;;;;;;10336680;28;20317;-73
2024/01/07 13:49:58;;;;;;;8.53;7.73;;;5.00;45.40;;;;;;10317980;28;20236;-73
2024/01/07 13:55:01;;;;;;;9.07;7.63;;;4.90;45.30;;;;;;10316415;28;20235;-73
2024/01/07 14:00:08;;;;;;;8.43;7.63;;;4.90;45.20;;;;;;10335470;28;20352;-73
2024/01/07 14:05:14;;;;;;;8.60;7.80;;;4.90;45.30;;;;;;10344740;28;20268;-73
2024/01/07 14:10:19;;;;;;;8.50;7.70;;;4.90;45.20;;;;;;10342479;28;20693;-73
2024/01/07 14:15:23;;;;;;;8.87;7.47;;;4.90;45.20;;;;;;10346354;28;20226;-73
2024/01/07 14:20:28;;;;;;;9.00;8.10;;;4.90;45.10;;;;;;10346087;28;20317;-73
2024/01/07 14:25:31;;;;;;;8.77;7.87;;;4.90;45.10;;;;;;10349091;28;20257;-73
2024/01/07 14:30:35;;;;;;;7.83;7.03;;;4.90;45.20;;;;;;10347821;28;20973;-73
2024/01/07 14:35:39;;;;;;;7.87;6.83;;;4.90;45.20;;;;;;10346577;28;20233;-73
2024/01/07 14:40:46;;;;;;;8.30;7.40;;;4.90;45.10;;;;;;10346394;28;20226;-73
2024/01/07 14:45:49;;;;;;;7.90;7.20;;;4.90;45.00;;;;;;10347273;28;20230;-73
2024/01/07 14:50:54;;;;;;;8.00;7.20;;;4.80;44.90;;;;;;10342520;28;20309;-73
2024/01/07 14:55:58;;;;;;;7.43;6.73;;;4.80;44.90;;;;;;10347633;28;20309;-73
2024/01/07 15:01:02;;;;;;;8.47;7.03;;;4.70;44.80;;;;;;10345222;28;20229;-73
2024/01/07 15:06:08;;;;;;;8.60;7.70;;;4.70;44.80;;;;;;10346452;28;20242;-73
2024/01/07 15:11:11;;;;;;;8.03;6.87;;;4.60;44.70;;;;;;10344902;28;20305;-75
2024/01/07 15:16:14;;;;;;;8.37;7.43;;;4.60;45.00;;;;;;10346411;28;20321;-75
2024/01/07 15:21:19;;;;;;;7.60;6.83;;;4.60;45.40;;;;;;10346863;28;20234;-73
2024/01/07 15:26:22;;;;;;;8.00;7.20;;;4.60;45.60;;;;;;10347038;28;20235;-72
2024/01/07 15:31:25;;;;;;;7.83;7.07;;;4.70;46.00;;;;;;10341950;28;20223;-73
2024/01/07 15:36:30;;;;;;;7.53;6.70;;;4.90;46.40;;;;;;10346052;28;20235;-72
2024/01/07 15:41:33;;;;;;;8.50;7.70;;;5.10;46.40;;;;;;10352024;28;20234;-73
2024/01/07 15:46:37;;;;;;;8.63;7.73;;;5.20;45.70;;;;;;10345060;28;20230;-72
2024/01/07 15:51:41;;;;;;;8.50;7.60;;;5.30;45.00;;;;;;10342302;28;20725;-74
2024/01/07 15:56:45;;;;;;;8.57;7.73;;;5.40;44.50;;;;;;10346805;28;20285;-72
2024/01/07 16:01:48;;;;;;;8.90;8.00;;;5.40;45.20;;;;;;10353336;28;20345;-73
2024/01/07 16:06:53;;;;;;;10.20;9.20;;;5.30;44.50;;;;;;10345485;28;20313;-72
2024/01/07 16:11:56;;;;;;;10.13;8.93;;;5.20;44.20;;;;;;10344499;28;20218;-73
2024/01/07 16:17:00;;;;;;;11.23;8.80;;;5.20;44.30;;;;;;10350328;28;20238;-73
2024/01/07 16:22:10;;;;;;;8.97;8.07;;;5.20;44.50;;;;;;10345457;28;20230;-73
2024/01/07 16:27:14;;;;;;;10.47;9.37;;;5.20;46.00;;;;;;10344415;28;20604;-72
2024/01/07 16:32:18;;;;;;;10.27;9.13;;;5.30;47.00;;;;;;10347009;28;20278;-73
2024/01/07 16:37:23;;;;;;;9.67;8.73;;;5.60;47.30;;;;;;10351223;28;20293;-73
2024/01/07 16:42:26;;;;;;;10.07;9.07;;;5.80;46.00;;;;;;10346268;28;20225;-76
2024/01/07 16:47:29;;;;;;;9.80;8.27;;;6.00;44.90;;;;;;10362522;28;20230;-76
2024/01/07 16:52:34;;;;;;;9.17;8.20;;;6.00;44.10;;;;;;10358349;28;20234;-76
2024/01/07 16:57:38;;;;;;;10.53;8.93;;;5.90;43.40;;;;;;10363126;28;20388;-78
2024/01/07 17:02:42;;;;;;;9.57;8.27;;;5.60;43.10;;;;;;10360523;28;20229;-75
2024/01/07 17:07:47;;;;;;;9.97;8.93;;;5.40;43.10;;;;;;10359392;28;20218;-76
2024/01/07 17:12:51;;;;;;;9.77;8.37;;;5.30;43.00;;;;;;10348622;28;20246;-75
2024/01/07 17:17:54;;;;;;;10.27;8.80;;;5.10;43.30;;;;;;10370277;28;20260;-74
2024/01/07 17:22:59;;;;;;;9.20;8.30;;;5.00;43.50;;;;;;10357051;28;20230;-75
2024/01/07 17:28:03;;;;;;;9.17;8.23;;;4.90;43.50;;;;;;10344194;28;20227;-75
2024/01/07 17:33:08;;;;;;;8.53;7.50;;;4.80;43.50;;;;;;10359966;28;20272;-74
2024/01/07 17:38:18;;;;;;;7.93;7.17;;;4.70;43.40;;;;;;10358085;28;20290;-74
2024/01/07 17:43:22;;;;;;;7.93;7.13;;;4.60;43.10;;;;;;10357532;28;20740;-74
2024/01/07 17:48:25;;;;;;;7.57;6.83;;;4.50;43.20;;;;;;10353451;28;20272;-75
2024/01/07 17:53:31;;;;;;;7.33;6.17;;;4.50;43.40;;;;;;10333037;28;21691;-74
2024/01/07 17:58:34;;;;;;;8.17;7.00;;;4.50;43.30;;;;;;10319799;28;20231;-74
2024/01/07 18:03:37;;;;;;;7.23;6.37;;;4.50;43.30;;;;;;10350135;28;20233;-74
2024/01/07 18:08:42;;;;;;;8.93;7.10;;;4.50;43.10;;;;;;10362269;28;20836;-74
2024/01/07 18:13:55;;;;;;;8.70;6.90;;;4.50;42.80;;;;;;10366781;28;20276;-74
2024/01/07 18:18:59;;;;;;;8.50;7.03;;;4.50;42.90;;;;;;10363545;28;20223;-74
2024/01/07 18:24:04;;;;;;;9.03;7.67;;;4.50;43.00;;;;;;10360083;28;20219;-74
2024/01/07 18:29:11;;;;;;;8.17;7.07;;;4.50;42.90;;;;;;10357507;28;20224;-74
2024/01/07 18:34:15;;;;;;;7.63;6.67;;;4.40;42.90;;;;;;10359865;28;20222;-74
2024/01/07 18:39:19;;;;;;;9.47;7.20;;;4.40;42.90;;;;;;10358306;28;20308;-74
2024/01/07 18:44:25;;;;;;;7.47;6.77;;;4.40;42.60;;;;;;10355376;28;20309;-74
2024/01/07 18:49:28;;;;;;;9.13;7.30;;;4.40;42.90;;;;;;10351207;28;20238;-76
2024/01/07 18:54:33;;;;;;;8.10;6.73;;;4.40;43.00;;;;;;10350295;28;20234;-73
2024/01/07 18:59:36;;;;;;;9.40;7.10;;;4.40;42.90;;;;;;10341862;28;20588;-73
2024/01/07 19:04:40;;;;;;;7.77;6.90;;;4.40;43.00;;;;;;10340079;28;20626;-73
2024/01/07 19:09:45;;;;;;;7.80;7.00;;;4.40;43.00;;;;;;10341943;28;20242;-73
2024/01/07 19:14:48;;;;;;;8.37;6.80;;;4.40;42.90;;;;;;10345528;28;21182;-73
2024/01/07 19:19:51;;;;;;;9.27;7.53;;;4.30;43.00;;;;;;10343535;28;20242;-73
2024/01/07 19:24:56;;;;;;;7.80;6.80;;;4.30;43.10;;;;;;10346146;28;20226;-73
2024/01/07 19:29:59;;;;;;;9.27;7.03;;;4.30;43.10;;;;;;10353659;28;20226;-73
2024/01/07 19:35:02;;;;;;;7.40;6.70;;;4.30;43.30;;;;;;10352886;28;20303;-73
2024/01/07 19:40:08;;;;;;;7.83;6.43;;;4.30;43.50;;;;;;10360556;28;20298;-73
2024/01/07 19:45:12;;;;;;;7.43;6.10;;;4.30;42.90;;;;;;10363317;28;20304;-73
2024/01/07 19:50:15;;;;;;;7.50;6.30;;;4.30;42.90;;;;;;10360210;28;20226;-73
2024/01/07 19:55:19;;;;;;;6.03;5.47;;;4.20;42.90;;;;;;10359786;28;20637;-72
2024/01/07 20:00:23;;;;;;;6.60;6.00;;;4.20;42.50;;;;;;10361668;28;20241;-73
2024/01/07 20:05:26;;;;;;;6.30;5.80;;;4.10;42.80;;;;;;10356548;28;20227;-72
2024/01/07 20:10:31;;;;;;;6.10;5.60;;;4.10;42.80;;;;;;10354072;28;21019;-73
2024/01/07 20:15:35;;;;;;;5.37;4.93;;;4.10;42.50;;;;;;10364242;28;20236;-71
2024/01/07 20:20:39;;;;;;;5.13;4.73;;;4.00;42.60;;;;;;10369605;28;20245;-73
2024/01/07 20:25:46;;;;;;;5.30;4.80;;;4.00;42.20;;;;;;10358593;28;20720;-71
2024/01/07 20:30:49;;;;;;;5.50;5.00;;;3.90;41.80;;;;;;10345925;28;20432;-74
2024/01/07 20:35:54;;;;;;;5.10;4.60;;;3.90;41.80;;;;;;10354699;28;20234;-74
2024/01/07 20:40:59;;;;;;;5.80;5.30;;;3.80;41.70;;;;;;10354097;28;20231;-76
2024/01/07 20:46:02;;;;;;;5.33;4.83;;;3.70;41.70;;;;;;10357956;28;20265;-74
2024/01/07 20:51:06;;;;;;;5.23;4.73;;;3.60;41.80;;;;;;10363068;28;20755;-74
2024/01/07 20:56:11;;;;;;;4.90;4.40;;;3.60;41.60;;;;;;10361793;28;20257;-75
2024/01/07 21:01:14;;;;;;;4.70;4.30;;;3.50;41.50;;;;;;10361145;28;20257;-74
2024/01/07 21:06:17;;;;;;;5.00;4.60;;;3.50;41.50;;;;;;10362168;28;20230;-74
2024/01/07 21:11:22;;;;;;;5.07;4.60;;;3.50;41.50;;;;;;10366311;28;20285;-73
2024/01/07 21:16:25;;;;;;;4.73;4.33;;;3.40;41.50;;;;;;10367990;28;20256;-77
2024/01/07 21:21:28;;;;;;;5.20;4.73;;;3.40;41.50;;;;;;10331667;28;20924;-74
2024/01/07 21:26:33;;;;;;;4.83;4.43;;;3.40;42.10;;;;;;10337806;28;20331;-76
2024/01/07 21:31:36;;;;;;;5.60;4.23;;;3.30;41.30;;;;;;10352768;28;20249;-75
2024/01/07 21:36:43;;;;;;;4.50;4.10;;;3.30;41.30;;;;;;10346165;28;20613;-75
2024/01/07 21:41:49;;;;;;;4.63;4.17;;;3.30;41.30;;;;;;10345914;28;20245;-76
2024/01/07 21:46:52;;;;;;;4.70;4.20;;;3.20;41.20;;;;;;10344962;28;20227;-75
2024/01/07 21:51:55;;;;;;;4.50;4.10;;;3.20;41.40;;;;;;10343220;28;20286;-74
2024/01/07 21:57:00;;;;;;;4.90;4.40;;;3.20;41.30;;;;;;10354027;28;20248;-72
2024/01/07 22:02:03;;;;;;;4.10;3.80;;;3.20;41.20;;;;;;10345569;28;20321;-74
2024/01/07 22:07:07;;;;;;;4.50;4.10;;;3.10;41.20;;;;;;10350197;28;20226;-74
2024/01/07 22:12:11;;;;;;;4.50;4.10;;;3.10;41.20;;;;;;10345340;28;20616;-74
2024/01/07 22:17:15;;;;;;;4.70;4.30;;;3.00;40.80;;;;;;10344399;28;20226;-75
2024/01/07 22:22:20;;;;;;;4.20;3.80;;;3.00;41.00;;;;;;10341571;28;20317;-75
2024/01/07 22:27:24;;;;;;;4.50;4.03;;;2.90;41.00;;;;;;10349698;28;20237;-75
2024/01/07 22:32:28;;;;;;;4.50;4.10;;;3.00;40.80;;;;;;10353559;28;20230;-75
2024/01/07 22:37:31;;;;;;;3.60;3.30;;;2.80;40.70;;;;;;10353751;28;20234;-74
2024/01/07 22:42:37;;;;;;;3.70;3.40;;;2.70;40.50;;;;;;10340618;28;20234;-73
2024/01/07 22:47:41;;;;;;;3.90;3.60;;;2.70;40.20;;;;;;10342879;28;20234;-72
2024/01/07 22:52:46;;;;;;;3.57;3.27;;;2.60;40.10;;;;;;10328990;28;20785;-73
2024/01/07 22:57:50;;;;;;;3.87;3.47;;;2.50;40.10;;;;;;10302809;28;20318;-73
2024/01/07 23:02:55;;;;;;;3.20;3.00;;;2.50;40.20;;;;;;10343949;28;20240;-72
2024/01/07 23:07:58;;;;;;;3.70;3.40;;;2.40;40.60;;;;;;10347048;28;20287;-73
2024/01/07 23:13:03;;;;;;;5.13;3.60;;;2.40;40.60;;;;;;10349766;28;20233;-73
2024/01/07 23:18:07;;;;;;;3.70;3.40;;;2.40;40.40;;;;;;10353076;28;20701;-73
2024/01/07 23:23:12;;;;;;;3.60;3.30;;;2.40;40.30;;;;;;10355507;28;20241;-73
2024/01/07 23:28:17;;;;;;;4.10;3.40;;;2.50;40.40;;;;;;10354165;28;20315;-73
2024/01/07 23:33:20;;;;;;;3.30;3.00;;;2.30;40.20;;;;;;10356083;28;20855;-73
2024/01/07 23:38:23;;;;;;;3.00;2.80;;;2.30;40.50;;;;;;10359634;28;20715;-73
2024/01/07 23:43:28;;;;;;;3.30;3.00;;;2.30;40.50;;;;;;10358963;28;20720;-73
2024/01/07 23:48:32;;;;;;;3.30;3.00;;;2.30;40.60;;;;;;10357633;28;20234;-72
2024/01/07 23:53:36;;;;;;;3.40;3.10;;;2.30;40.50;;;;;;10360252;28;20238;-72
2024/01/07 23:58:40;;;;;;;3.17;2.87;;;2.30;40.20;;;;;;10360936;28;20288;-73
